createdAt,value
2023-09-08T00:00:41.775Z,42.8
2023-09-08T00:01:43.828Z,42.8
2023-09-08T00:02:46.096Z,42.8
2023-09-08T00:03:48.116Z,42.7
2023-09-08T00:04:50.263Z,42.8
2023-09-08T00:05:52.175Z,42.8
2023-09-08T00:06:54.123Z,42.8
2023-09-08T00:07:56.190Z,42.8
2023-09-08T00:08:57.913Z,42.9
2023-09-08T00:09:59.660Z,43
2023-09-08T00:11:01.472Z,43
2023-09-08T00:12:03.407Z,43
2023-09-08T00:13:05.335Z,43
2023-09-08T00:14:07.069Z,43
2023-09-08T00:15:08.836Z,43
2023-09-08T00:16:11.004Z,43
2023-09-08T00:17:13.410Z,43.1
2023-09-08T00:18:15.377Z,43
2023-09-08T00:19:17.294Z,43.1
2023-09-08T00:20:19.013Z,43
2023-09-08T00:21:20.833Z,43.1
2023-09-08T00:22:22.695Z,43.1
2023-09-08T00:23:24.489Z,43.1
2023-09-08T00:24:26.269Z,43.1
2023-09-08T00:25:28.058Z,43.1
2023-09-08T00:26:29.773Z,43.1
2023-09-08T00:27:31.551Z,43.1
2023-09-08T00:28:33.894Z,43.1
2023-09-08T00:29:36.737Z,43
2023-09-08T00:30:38.548Z,43.2
2023-09-08T00:31:40.268Z,43.1
2023-09-08T00:32:42.217Z,43.1
2023-09-08T00:33:44.752Z,43.1
2023-09-08T00:34:47.133Z,43.1
2023-09-08T00:35:48.887Z,43
2023-09-08T00:36:50.674Z,43.1
2023-09-08T00:37:52.481Z,43.1
2023-09-08T00:38:54.209Z,43.1
2023-09-08T00:39:55.911Z,43.1
2023-09-08T00:40:57.771Z,43.1
2023-09-08T00:41:59.606Z,43.1
2023-09-08T00:43:01.445Z,43.1
2023-09-08T00:44:03.191Z,43
2023-09-08T00:45:05.030Z,43
2023-09-08T00:46:07.436Z,42.9
2023-09-08T00:47:09.672Z,42.8
2023-09-08T00:48:11.754Z,42.8
2023-09-08T00:49:13.893Z,42.8
2023-09-08T00:50:15.733Z,42.7
2023-09-08T00:51:17.709Z,42.8
2023-09-08T00:52:19.451Z,42.7
2023-09-08T00:53:21.210Z,42.7
2023-09-08T00:54:22.957Z,42.7
2023-09-08T00:55:24.690Z,42.6
2023-09-08T00:56:26.426Z,42.6
2023-09-08T00:57:28.373Z,42.6
2023-09-08T00:58:30.215Z,42.6
2023-09-08T00:59:31.962Z,42.6
2023-09-08T01:00:33.919Z,42.6
2023-09-08T01:01:36.302Z,42.5
2023-09-08T01:02:38.273Z,42.5
2023-09-08T01:03:40.651Z,42.5
2023-09-08T01:04:43.399Z,42.5
2023-09-08T01:05:45.608Z,42.4
2023-09-08T01:06:47.874Z,42.4
2023-09-08T01:07:49.748Z,42.4
2023-09-08T01:08:51.950Z,42.3
2023-09-08T01:09:54.360Z,42.3
2023-09-08T01:10:56.521Z,42.3
2023-09-08T01:11:58.315Z,42.3
2023-09-08T01:13:00.201Z,42.3
2023-09-08T01:14:01.947Z,42.3
2023-09-08T01:15:04.039Z,42.3
2023-09-08T01:16:06.193Z,42.3
2023-09-08T01:17:08.157Z,42.2
2023-09-08T01:18:10.451Z,42.2
2023-09-08T01:19:12.779Z,42.1
2023-09-08T01:20:14.550Z,42.2
2023-09-08T01:21:16.374Z,42.2
2023-09-08T01:22:18.193Z,42.2
2023-09-08T01:23:19.971Z,42.2
2023-09-08T01:24:21.788Z,42.2
2023-09-08T01:25:23.896Z,42.2
2023-09-08T01:26:25.765Z,42.2
2023-09-08T01:27:27.472Z,42.2
2023-09-08T01:28:29.398Z,42.1
2023-09-08T01:29:31.673Z,42.1
2023-09-08T01:30:33.478Z,42.2
2023-09-08T01:31:35.493Z,42.1
2023-09-08T01:32:37.585Z,42.1
2023-09-08T01:33:39.479Z,42.1
2023-09-08T01:34:41.225Z,42.2
2023-09-08T01:35:42.944Z,42.2
2023-09-08T01:36:44.648Z,42.2
2023-09-08T01:37:46.355Z,42.2
2023-09-08T01:38:48.276Z,42.2
2023-09-08T01:39:50.244Z,42.2
2023-09-08T01:40:51.986Z,42.2
2023-09-08T01:41:53.818Z,42.2
2023-09-08T01:42:55.575Z,42.2
2023-09-08T01:43:57.380Z,42.3
2023-09-08T01:44:59.129Z,42.3
2023-09-08T01:46:00.972Z,42.3
2023-09-08T01:47:03.119Z,42.3
2023-09-08T01:48:07.091Z,42.3
2023-09-08T01:49:09.158Z,42.3
2023-09-08T01:50:11.119Z,42.3
2023-09-08T01:51:12.902Z,42.3
2023-09-08T01:52:14.917Z,42.4
2023-09-08T01:53:16.932Z,42.4
2023-09-08T01:54:18.744Z,42.4
2023-09-08T01:55:20.523Z,42.4
2023-09-08T01:56:22.301Z,42.4
2023-09-08T01:57:24.025Z,42.4
2023-09-08T01:58:25.923Z,42.5
2023-09-08T01:59:27.946Z,42.5
2023-09-08T02:00:29.832Z,42.5
2023-09-08T02:01:31.729Z,42.5
2023-09-08T02:02:33.799Z,42.5
2023-09-08T02:03:35.666Z,42.5
2023-09-08T02:04:37.565Z,42.5
2023-09-08T02:05:39.760Z,42.5
2023-09-08T02:06:42.008Z,42.5
2023-09-08T02:07:43.898Z,42.5
2023-09-08T02:08:45.839Z,42.5
2023-09-08T02:09:47.632Z,42.5
2023-09-08T02:10:49.464Z,42.5
2023-09-08T02:11:51.182Z,42.5
2023-09-08T02:12:52.912Z,42.5
2023-09-08T02:13:58.713Z,42.5
2023-09-08T02:15:00.693Z,42.5
2023-09-08T02:16:03.364Z,42.5
2023-09-08T02:17:05.647Z,42.5
2023-09-08T02:18:07.502Z,42.5
2023-09-08T02:19:09.491Z,42.5
2023-09-08T02:20:13.578Z,42.6
2023-09-08T02:21:15.396Z,42.6
2023-09-08T02:22:17.338Z,42.6
2023-09-08T02:23:19.076Z,42.6
2023-09-08T02:24:20.987Z,42.6
2023-09-08T02:25:23.070Z,42.7
2023-09-08T02:26:24.894Z,42.7
2023-09-08T02:27:26.600Z,42.7
2023-09-08T02:28:28.523Z,42.7
2023-09-08T02:29:30.491Z,42.7
2023-09-08T02:30:32.442Z,42.7
2023-09-08T02:31:34.542Z,42.7
2023-09-08T02:32:36.323Z,42.7
2023-09-08T02:33:38.422Z,42.8
2023-09-08T02:34:40.517Z,42.8
2023-09-08T02:35:42.296Z,42.8
2023-09-08T02:36:44.217Z,42.8
2023-09-08T02:37:46.232Z,42.8
2023-09-08T02:38:47.982Z,42.8
2023-09-08T02:39:49.724Z,42.9
2023-09-08T02:40:51.552Z,42.9
2023-09-08T02:41:53.311Z,42.8
2023-09-08T02:42:55.150Z,42.8
2023-09-08T02:43:56.943Z,42.8
2023-09-08T02:44:58.640Z,42.9
2023-09-08T02:46:00.596Z,42.9
2023-09-08T02:47:02.822Z,42.8
2023-09-08T02:48:04.821Z,42.9
2023-09-08T02:49:06.919Z,42.9
2023-09-08T02:50:08.772Z,42.9
2023-09-08T02:51:10.554Z,42.9
2023-09-08T02:52:12.269Z,42.9
2023-09-08T02:53:13.966Z,42.9
2023-09-08T02:54:15.793Z,42.9
2023-09-08T02:55:17.566Z,43
2023-09-08T02:56:19.341Z,42.9
2023-09-08T02:57:21.163Z,43
2023-09-08T02:58:22.978Z,43
2023-09-08T02:59:24.855Z,43
2023-09-08T03:00:26.667Z,43
2023-09-08T03:01:28.518Z,43.1
2023-09-08T03:02:31.134Z,43.1
2023-09-08T03:03:33.730Z,43.1
2023-09-08T03:04:36.151Z,43.1
2023-09-08T03:05:38.248Z,43.1
2023-09-08T03:06:40.496Z,43.1
2023-09-08T03:07:42.270Z,43.2
2023-09-08T03:08:44.388Z,43.1
2023-09-08T03:09:46.165Z,43.1
2023-09-08T03:10:47.914Z,43.2
2023-09-08T03:11:49.665Z,43.2
2023-09-08T03:12:51.668Z,43.3
2023-09-08T03:13:53.489Z,43.3
2023-09-08T03:14:55.292Z,43.4
2023-09-08T03:15:57.065Z,43.4
2023-09-08T03:16:59.138Z,43.4
2023-09-08T03:18:01.215Z,43.4
2023-09-08T03:19:03.383Z,43.4
2023-09-08T03:20:05.209Z,43.5
2023-09-08T03:21:07.103Z,43.5
2023-09-08T03:22:08.814Z,43.6
2023-09-08T03:23:10.669Z,43.6
2023-09-08T03:24:12.412Z,43.6
2023-09-08T03:25:14.159Z,43.6
2023-09-08T03:26:15.891Z,43.6
2023-09-08T03:27:17.657Z,43.6
2023-09-08T03:28:19.404Z,43.6
2023-09-08T03:29:21.094Z,43.6
2023-09-08T03:30:22.973Z,43.6
2023-09-08T03:31:25.119Z,43.7
2023-09-08T03:32:27.848Z,43.6
2023-09-08T03:33:30.553Z,43.6
2023-09-08T03:34:33.024Z,43.6
2023-09-08T03:35:35.195Z,43.6
2023-09-08T03:36:37.254Z,43.5
2023-09-08T03:37:39.289Z,43.5
2023-09-08T03:38:40.982Z,43.6
2023-09-08T03:39:42.801Z,43.5
2023-09-08T03:40:44.622Z,43.5
2023-09-08T03:41:46.372Z,43.6
2023-09-08T03:42:48.268Z,43.7
2023-09-08T03:43:50.409Z,43.6
2023-09-08T03:44:52.125Z,43.7
2023-09-08T03:45:54.042Z,43.6
2023-09-08T03:46:56.447Z,43.6
2023-09-08T03:47:58.210Z,43.6
2023-09-08T03:49:00.231Z,43.5
2023-09-08T03:50:02.159Z,43.5
2023-09-08T03:51:04.255Z,43.5
2023-09-08T03:52:06.048Z,43.5
2023-09-08T03:53:07.981Z,43.6
2023-09-08T03:54:10.038Z,43.6
2023-09-08T03:55:11.801Z,43.6
2023-09-08T03:56:13.714Z,43.6
2023-09-08T03:57:15.494Z,43.6
2023-09-08T03:58:17.334Z,43.6
2023-09-08T03:59:19.143Z,43.6
2023-09-08T04:00:20.971Z,43.6
2023-09-08T04:01:22.974Z,43.6
2023-09-08T04:02:25.016Z,43.6
2023-09-08T04:03:27.404Z,43.6
2023-09-08T04:04:31.667Z,43.7
2023-09-08T04:05:33.568Z,43.7
2023-09-08T04:06:35.564Z,43.6
2023-09-08T04:07:37.395Z,43.5
2023-09-08T04:08:39.292Z,43.5
2023-09-08T04:09:41.948Z,43.6
2023-09-08T04:10:43.985Z,43.6
2023-09-08T04:11:45.899Z,43.6
2023-09-08T04:12:47.851Z,43.7
2023-09-08T04:13:49.736Z,43.9
2023-09-08T04:14:51.580Z,43.9
2023-09-08T04:15:53.831Z,43.9
2023-09-08T04:16:55.707Z,44.1
2023-09-08T04:17:57.652Z,44.3
2023-09-08T04:19:00.072Z,44.2
2023-09-08T04:20:01.998Z,44
2023-09-08T04:21:03.909Z,43.9
2023-09-08T04:22:05.993Z,43.9
2023-09-08T04:23:07.757Z,43.9
2023-09-08T04:24:09.534Z,44
2023-09-08T04:25:11.515Z,43.9
2023-09-08T04:26:13.243Z,43.9
2023-09-08T04:27:16.183Z,43.9
2023-09-08T04:28:18.020Z,43.9
2023-09-08T04:29:19.798Z,43.9
2023-09-08T04:30:21.806Z,44.1
2023-09-08T04:31:24.199Z,44.2
2023-09-08T04:32:26.156Z,44.2
2023-09-08T04:33:28.222Z,44.3
2023-09-08T04:34:30.295Z,44.3
2023-09-08T04:35:32.095Z,44.4
2023-09-08T04:36:33.833Z,44.5
2023-09-08T04:37:35.636Z,44.5
2023-09-08T04:38:37.438Z,44.5
2023-09-08T04:39:39.425Z,44.6
2023-09-08T04:40:41.352Z,44.8
2023-09-08T04:41:43.306Z,44.8
2023-09-08T04:42:45.189Z,44.5
2023-09-08T04:43:47.213Z,44.5
2023-09-08T04:44:49.006Z,44.5
2023-09-08T04:45:50.807Z,44.4
2023-09-08T04:46:52.586Z,44.5
2023-09-08T04:47:54.616Z,44.3
2023-09-08T04:48:56.714Z,44
2023-09-08T04:49:58.787Z,43.8
2023-09-08T04:51:00.962Z,43.8
2023-09-08T04:52:02.766Z,43.7
2023-09-08T04:53:04.656Z,43.7
2023-09-08T04:54:06.432Z,43.7
2023-09-08T04:55:08.199Z,43.5
2023-09-08T04:56:09.880Z,43.5
2023-09-08T04:57:23.923Z,43.4
2023-09-08T04:58:26.161Z,43.2
2023-09-08T04:59:28.083Z,43.2
2023-09-08T05:00:29.933Z,43.1
2023-09-08T05:01:31.850Z,43.1
2023-09-08T05:02:33.933Z,43.1
2023-09-08T05:03:36.461Z,43.1
2023-09-08T05:04:38.757Z,43.1
2023-09-08T05:05:40.777Z,43.2
2023-09-08T05:06:42.742Z,43.4
2023-09-08T05:07:44.476Z,43.3
2023-09-08T05:08:46.358Z,43.2
2023-09-08T05:09:48.304Z,43.1
2023-09-08T05:10:50.074Z,43.1
2023-09-08T05:11:52.036Z,43.3
2023-09-08T05:12:54.176Z,43.4
2023-09-08T05:13:55.935Z,43.4
2023-09-08T05:14:57.695Z,43.5
2023-09-08T05:15:59.630Z,43.4
2023-09-08T05:17:01.426Z,43.6
2023-09-08T05:18:03.423Z,43.6
2023-09-08T05:19:05.509Z,44
2023-09-08T05:20:07.517Z,43.9
2023-09-08T05:21:09.546Z,43.4
2023-09-08T05:22:11.628Z,43.2
2023-09-08T05:23:13.441Z,43.3
2023-09-08T05:24:15.206Z,43.3
2023-09-08T05:25:17.423Z,43.3
2023-09-08T05:26:19.580Z,43.2
2023-09-08T05:27:21.544Z,43
2023-09-08T05:28:23.545Z,43
2023-09-08T05:29:25.572Z,42.9
2023-09-08T05:30:27.301Z,42.6
2023-09-08T05:31:29.322Z,42.6
2023-09-08T05:32:31.690Z,42.4
2023-09-08T05:33:33.951Z,42.4
2023-09-08T05:34:35.782Z,42.3
2023-09-08T05:35:37.695Z,42.3
2023-09-08T05:36:39.705Z,42.9
2023-09-08T05:37:41.492Z,42.1
2023-09-08T05:38:43.390Z,41.9
2023-09-08T05:39:45.275Z,41.8
2023-09-08T05:40:47.090Z,41.8
2023-09-08T05:41:49.010Z,41.7
2023-09-08T05:42:50.748Z,41.7
2023-09-08T05:43:52.446Z,41.7
2023-09-08T05:44:54.250Z,41.9
2023-09-08T05:45:56.033Z,41.8
2023-09-08T05:46:58.124Z,41.8
2023-09-08T05:48:00.617Z,41.6
2023-09-08T05:49:02.830Z,41.3
2023-09-08T05:50:04.772Z,41.2
2023-09-08T05:51:06.548Z,41.2
2023-09-08T05:52:08.518Z,41.2
2023-09-08T05:53:10.593Z,41
2023-09-08T05:54:12.572Z,41
2023-09-08T05:55:14.380Z,40.9
2023-09-08T05:56:16.272Z,40.7
2023-09-08T05:57:18.210Z,40.8
2023-09-08T05:58:20.160Z,40.7
2023-09-08T05:59:21.859Z,41
2023-09-08T06:00:23.594Z,40.8
2023-09-08T06:01:25.634Z,40.6
2023-09-08T06:02:27.819Z,40.7
2023-09-08T06:03:30.243Z,40.6
2023-09-08T06:04:32.826Z,40.4
2023-09-08T06:05:34.874Z,40.3
2023-09-08T06:06:36.615Z,40.4
2023-09-08T06:07:39.375Z,40.3
2023-09-08T06:08:45.475Z,40.3
2023-09-08T06:09:47.272Z,40.3
2023-09-08T06:10:49.075Z,40.3
2023-09-08T06:11:50.795Z,40.3
2023-09-08T06:12:52.776Z,40.2
2023-09-08T06:13:54.639Z,40
2023-09-08T06:14:56.393Z,39.8
2023-09-08T06:15:58.135Z,39.6
2023-09-08T06:16:59.980Z,39.9
2023-09-08T06:18:01.859Z,39.9
2023-09-08T06:19:03.919Z,40.1
2023-09-08T06:20:08.509Z,39.9
2023-09-08T06:21:10.442Z,39.8
2023-09-08T06:22:12.543Z,39.5
2023-09-08T06:23:14.286Z,39.5
2023-09-08T06:24:16.018Z,39.4
2023-09-08T06:25:17.715Z,39.1
2023-09-08T06:26:19.474Z,39.2
2023-09-08T06:27:21.248Z,39.2
2023-09-08T06:28:23.016Z,39.1
2023-09-08T06:29:24.717Z,39
2023-09-08T06:30:26.474Z,39
2023-09-08T06:31:28.307Z,38.9
2023-09-08T06:32:30.407Z,38.7
2023-09-08T06:33:32.511Z,38.6
2023-09-08T06:34:35.194Z,38.1
2023-09-08T06:35:37.210Z,38.3
2023-09-08T06:36:38.984Z,38.9
2023-09-08T06:37:41.146Z,38.8
2023-09-08T06:38:42.851Z,38.7
2023-09-08T06:39:44.606Z,38.7
2023-09-08T06:40:46.503Z,38.4
2023-09-08T06:41:48.254Z,38.4
2023-09-08T06:42:50.024Z,38.3
2023-09-08T06:43:51.829Z,38.3
2023-09-08T06:44:53.582Z,38.3
2023-09-08T06:45:55.426Z,38.1
2023-09-08T06:46:57.571Z,37.9
2023-09-08T06:47:59.793Z,38.2
2023-09-08T06:49:05.482Z,38.2
2023-09-08T06:50:07.452Z,38
2023-09-08T06:51:09.490Z,37.5
2023-09-08T06:52:11.652Z,37.8
2023-09-08T06:53:13.424Z,37.8
2023-09-08T06:54:15.447Z,37.8
2023-09-08T06:55:17.123Z,37.9
2023-09-08T06:56:18.908Z,37.5
2023-09-08T06:57:20.686Z,37.5
2023-09-08T06:58:22.472Z,37.6
2023-09-08T06:59:24.328Z,37.6
2023-09-08T07:00:26.104Z,37.3
2023-09-08T07:01:28.478Z,37.4
2023-09-08T07:02:31.123Z,37.3
2023-09-08T07:03:34.274Z,37.2
2023-09-08T07:04:37.348Z,37.2
2023-09-08T07:05:39.778Z,37.2
2023-09-08T07:06:41.705Z,37
2023-09-08T07:07:44.295Z,37.1
2023-09-08T07:08:46.023Z,37
2023-09-08T07:09:47.740Z,36.9
2023-09-08T07:10:49.648Z,37.1
2023-09-08T07:11:51.596Z,37
2023-09-08T07:12:53.342Z,36.8
2023-09-08T07:13:55.106Z,37
2023-09-08T07:14:56.844Z,36.8
2023-09-08T07:15:58.783Z,36.7
2023-09-08T07:17:00.838Z,36.4
2023-09-08T07:18:06.550Z,36.4
2023-09-08T07:19:08.533Z,36.5
2023-09-08T07:20:10.583Z,36.6
2023-09-08T07:21:12.335Z,36.4
2023-09-08T07:22:14.097Z,36.3
2023-09-08T07:23:15.840Z,36.5
2023-09-08T07:24:17.553Z,36.8
2023-09-08T07:25:19.289Z,36.7
2023-09-08T07:26:21.102Z,36.7
2023-09-08T07:27:22.833Z,36.6
2023-09-08T07:28:24.617Z,36.3
2023-09-08T07:29:26.343Z,36.3
2023-09-08T07:30:28.428Z,36.5
2023-09-08T07:31:30.898Z,36.4
2023-09-08T07:32:32.743Z,36.4
2023-09-08T07:33:34.752Z,36.5
2023-09-08T07:34:36.688Z,36.5
2023-09-08T07:35:38.501Z,36.6
2023-09-08T07:36:40.610Z,36.5
2023-09-08T07:37:42.434Z,36.4
2023-09-08T07:38:44.305Z,36.5
2023-09-08T07:39:46.035Z,36.4
2023-09-08T07:40:47.801Z,36.1
2023-09-08T07:41:49.553Z,36.3
2023-09-08T07:42:51.400Z,36.3
2023-09-08T07:43:53.671Z,36.3
2023-09-08T07:44:55.701Z,36.4
2023-09-08T07:45:57.580Z,36.2
2023-09-08T07:46:59.530Z,36.1
2023-09-08T07:48:01.599Z,36
2023-09-08T07:49:03.831Z,36.3
2023-09-08T07:50:06.387Z,36.1
2023-09-08T07:51:08.228Z,35.9
2023-09-08T07:52:10.010Z,35.7
2023-09-08T07:53:11.723Z,35.5
2023-09-08T07:54:13.412Z,35.2
2023-09-08T07:55:15.158Z,35.1
2023-09-08T07:56:17.865Z,35.5
2023-09-08T07:57:19.707Z,35.6
2023-09-08T07:58:21.406Z,35.4
2023-09-08T07:59:23.262Z,35.5
2023-09-08T08:00:25.115Z,35.6
2023-09-08T08:01:27.161Z,35.4
2023-09-08T08:02:29.749Z,35.6
2023-09-08T08:03:31.929Z,35.6
2023-09-08T08:04:34.013Z,35.6
2023-09-08T08:05:35.957Z,35.7
2023-09-08T08:06:37.910Z,35.8
2023-09-08T08:07:39.766Z,35.9
2023-09-08T08:08:41.698Z,35.6
2023-09-08T08:09:43.639Z,35.7
2023-09-08T08:10:45.362Z,35.7
2023-09-08T08:11:47.188Z,35.6
2023-09-08T08:12:49.143Z,35.2
2023-09-08T08:13:50.890Z,35.5
2023-09-08T08:14:52.757Z,35.5
2023-09-08T08:15:54.725Z,35.6
2023-09-08T08:16:56.648Z,35.6
2023-09-08T08:17:58.688Z,35.3
2023-09-08T08:19:00.876Z,35
2023-09-08T08:20:03.121Z,34.7
2023-09-08T08:21:05.153Z,35
2023-09-08T08:22:07.682Z,35.1
2023-09-08T08:23:09.876Z,34.4
2023-09-08T08:24:11.999Z,34.8
2023-09-08T08:25:13.902Z,34.9
2023-09-08T08:26:15.652Z,34.6
2023-09-08T08:27:17.410Z,34.2
2023-09-08T08:28:19.287Z,34.4
2023-09-08T08:29:21.061Z,33.5
2023-09-08T08:30:22.838Z,33.6
2023-09-08T08:31:24.909Z,33.9
2023-09-08T08:32:27.011Z,34.1
2023-09-08T08:33:29.052Z,34.1
2023-09-08T08:34:30.871Z,34
2023-09-08T08:35:32.638Z,33.8
2023-09-08T08:36:34.410Z,33.9
2023-09-08T08:37:36.664Z,33.9
2023-09-08T08:38:38.572Z,33.5
2023-09-08T08:39:40.263Z,33.4
2023-09-08T08:40:42.156Z,33.3
2023-09-08T08:41:43.933Z,33.5
2023-09-08T08:42:45.685Z,33.4
2023-09-08T08:43:47.492Z,33.1
2023-09-08T08:44:49.248Z,33.1
2023-09-08T08:45:51.034Z,32.9
2023-09-08T08:46:53.166Z,32.7
2023-09-08T08:47:55.053Z,32.7
2023-09-08T08:48:57.069Z,32.9
2023-09-08T08:49:58.759Z,33.2
2023-09-08T08:51:00.476Z,32.9
2023-09-08T08:52:02.239Z,32.6
2023-09-08T08:53:04.097Z,33.4
2023-09-08T08:54:05.902Z,32.9
2023-09-08T08:55:07.660Z,32.7
2023-09-08T08:56:09.429Z,33
2023-09-08T08:57:11.567Z,32.9
2023-09-08T08:58:13.393Z,32.3
2023-09-08T08:59:15.241Z,32.1
2023-09-08T09:00:17.251Z,32
2023-09-08T09:01:19.411Z,31.7
2023-09-08T09:02:21.425Z,32
2023-09-08T09:03:23.467Z,32.2
2023-09-08T09:04:25.667Z,32.1
2023-09-08T09:05:27.662Z,32.2
2023-09-08T09:06:29.559Z,32.4
2023-09-08T09:07:31.425Z,32.2
2023-09-08T09:08:34.042Z,32.1
2023-09-08T09:09:37.193Z,32.1
2023-09-08T09:10:39.158Z,32
2023-09-08T09:11:41.025Z,32
2023-09-08T09:12:42.999Z,32.1
2023-09-08T09:13:44.730Z,32.3
2023-09-08T09:14:46.651Z,32.4
2023-09-08T09:15:48.819Z,32.4
2023-09-08T09:16:50.662Z,32.4
2023-09-08T09:17:54.833Z,32.3
2023-09-08T09:18:59.160Z,32.4
2023-09-08T09:20:03.413Z,32.4
2023-09-08T09:21:05.129Z,32.4
2023-09-08T09:22:06.840Z,32.5
2023-09-08T09:23:08.640Z,32.5
2023-09-08T09:24:10.900Z,32.5
2023-09-08T09:25:13.365Z,32.6
2023-09-08T09:26:15.903Z,32.6
2023-09-08T09:27:18.077Z,32.5
2023-09-08T09:28:19.976Z,32.5
2023-09-08T09:29:21.764Z,32.5
2023-09-08T09:30:23.656Z,32.5
2023-09-08T09:31:25.732Z,32.7
2023-09-08T09:32:28.204Z,32.7
2023-09-08T09:33:30.454Z,32.7
2023-09-08T09:34:32.892Z,32.6
2023-09-08T09:35:34.663Z,32.6
2023-09-08T09:36:36.493Z,32.7
2023-09-08T09:37:38.408Z,32.7
2023-09-08T09:38:40.456Z,32.7
2023-09-08T09:39:42.396Z,32.9
2023-09-08T09:40:44.733Z,32.7
2023-09-08T09:41:46.587Z,32.7
2023-09-08T09:42:48.462Z,32.7
2023-09-08T09:43:50.485Z,32.7
2023-09-08T09:44:52.302Z,32.7
2023-09-08T09:45:54.310Z,32.9
2023-09-08T09:46:56.594Z,32.9
2023-09-08T09:47:58.465Z,33
2023-09-08T09:49:00.382Z,32.9
2023-09-08T09:50:02.136Z,32.9
2023-09-08T09:51:03.888Z,32.8
2023-09-08T09:52:05.660Z,33
2023-09-08T09:53:07.476Z,32.9
2023-09-08T09:54:09.233Z,33
2023-09-08T09:55:11.175Z,32.9
2023-09-08T09:56:13.078Z,32.8
2023-09-08T09:57:14.825Z,33
2023-09-08T09:58:17.073Z,33
2023-09-08T09:59:19.166Z,33
2023-09-08T10:00:21.104Z,32.9
2023-09-08T10:01:23.411Z,33.6
2023-09-08T10:02:25.579Z,33.1
2023-09-08T10:03:27.712Z,33.1
2023-09-08T10:04:30.577Z,33
2023-09-08T10:05:32.398Z,33
2023-09-08T10:06:34.272Z,33
2023-09-08T10:07:36.420Z,32.9
2023-09-08T10:08:38.780Z,33
2023-09-08T10:09:40.588Z,33.1
2023-09-08T10:10:42.486Z,33.2
2023-09-08T10:11:44.495Z,33.1
2023-09-08T10:12:47.122Z,33.1
2023-09-08T10:13:49.773Z,33.1
2023-09-08T10:14:51.816Z,33.1
2023-09-08T10:15:53.775Z,33.2
2023-09-08T10:16:55.644Z,33.1
2023-09-08T10:17:57.780Z,33
2023-09-08T10:19:00.457Z,33.1
2023-09-08T10:20:02.542Z,33.1
2023-09-08T10:21:04.306Z,34
2023-09-08T10:22:06.244Z,33.2
2023-09-08T10:23:08.377Z,33.3
2023-09-08T10:24:10.250Z,33.2
2023-09-08T10:25:12.370Z,33.1
2023-09-08T10:26:14.183Z,33.3
2023-09-08T10:27:16.008Z,33.3
2023-09-08T10:28:18.027Z,33.3
2023-09-08T10:29:19.846Z,33.3
2023-09-08T10:30:21.997Z,33.3
2023-09-08T10:31:24.203Z,33.3
2023-09-08T10:32:26.535Z,33.2
2023-09-08T10:33:28.848Z,33.2
2023-09-08T10:34:30.824Z,33.3
2023-09-08T10:35:32.678Z,33.3
2023-09-08T10:36:37.058Z,33.3
2023-09-08T10:37:38.982Z,33.3
2023-09-08T10:38:40.672Z,33.4
2023-09-08T10:39:42.584Z,33.4
2023-09-08T10:40:44.776Z,33.3
2023-09-08T10:41:46.695Z,33.4
2023-09-08T10:42:48.728Z,33.5
2023-09-08T10:43:50.854Z,33.3
2023-09-08T10:44:52.841Z,33.4
2023-09-08T10:45:54.695Z,33.5
2023-09-08T10:46:56.877Z,33.4
2023-09-08T10:47:58.824Z,33.4
2023-09-08T10:49:01.071Z,33.4
2023-09-08T10:50:02.999Z,33.3
2023-09-08T10:51:04.759Z,33.4
2023-09-08T10:52:07.672Z,33.3
2023-09-08T10:53:10.074Z,33.3
2023-09-08T10:54:11.800Z,33.3
2023-09-08T10:55:13.606Z,33.4
2023-09-08T10:56:18.514Z,33.5
2023-09-08T10:57:20.793Z,33.7
2023-09-08T10:58:22.740Z,33.4
2023-09-08T10:59:24.604Z,33.5
2023-09-08T11:00:26.380Z,33.6
2023-09-08T11:01:28.441Z,33.6
2023-09-08T11:02:30.924Z,33.6
2023-09-08T11:03:33.285Z,33.6
2023-09-08T11:04:35.721Z,33.6
2023-09-08T11:05:37.822Z,33.6
2023-09-08T11:06:39.604Z,33.7
2023-09-08T11:07:41.413Z,33.7
2023-09-08T11:08:43.509Z,33.7
2023-09-08T11:09:45.644Z,33.7
2023-09-08T11:10:47.435Z,33.7
2023-09-08T11:11:49.378Z,33.7
2023-09-08T11:12:51.566Z,33.8
2023-09-08T11:13:53.358Z,33.8
2023-09-08T11:14:55.268Z,33.8
2023-09-08T11:15:57.501Z,33.9
2023-09-08T11:16:59.366Z,34
2023-09-08T11:18:01.461Z,34
2023-09-08T11:19:03.598Z,34.1
2023-09-08T11:20:05.351Z,34.1
2023-09-08T11:21:07.173Z,34.2
2023-09-08T11:22:08.969Z,34.1
2023-09-08T11:23:10.723Z,34.1
2023-09-08T11:24:12.472Z,34.2
2023-09-08T11:25:14.224Z,34.1
2023-09-08T11:26:16.016Z,34.2
2023-09-08T11:27:17.788Z,34.2
2023-09-08T11:28:19.873Z,34.2
2023-09-08T11:29:22.052Z,34.2
2023-09-08T11:30:23.843Z,34.2
2023-09-08T11:31:25.717Z,34.3
2023-09-08T11:32:27.726Z,34.3
2023-09-08T11:33:29.569Z,34.2
2023-09-08T11:34:31.454Z,34.2
2023-09-08T11:35:33.168Z,34.2
2023-09-08T11:36:34.941Z,34.2
2023-09-08T11:37:36.838Z,34.2
2023-09-08T11:38:38.614Z,34.2
2023-09-08T11:39:40.349Z,34.3
2023-09-08T11:40:42.191Z,33.9
2023-09-08T11:41:44.229Z,34.2
2023-09-08T11:42:46.908Z,34
2023-09-08T11:43:49.204Z,34.1
2023-09-08T11:44:51.123Z,33.7
2023-09-08T11:45:53.020Z,33.9
2023-09-08T11:46:55.637Z,33.9
2023-09-08T11:47:58.137Z,34.2
2023-09-08T11:49:00.364Z,34.1
2023-09-08T11:50:02.453Z,34.1
2023-09-08T11:51:04.178Z,34.2
2023-09-08T11:52:05.971Z,34.2
2023-09-08T11:53:08.029Z,34
2023-09-08T11:54:09.785Z,34.2
2023-09-08T11:55:11.525Z,34.1
2023-09-08T11:56:13.233Z,34.1
2023-09-08T11:57:14.969Z,34.3
2023-09-08T11:58:16.888Z,34.1
2023-09-08T11:59:19.081Z,34.2
2023-09-08T12:00:21.231Z,34.2
2023-09-08T12:01:23.038Z,34
2023-09-08T12:02:25.326Z,34
2023-09-08T12:03:27.612Z,34.1
2023-09-08T12:04:29.866Z,34.2
2023-09-08T12:05:32.120Z,34.2
2023-09-08T12:06:33.974Z,34.2
2023-09-08T12:07:35.984Z,34.1
2023-09-08T12:08:38.270Z,34.3
2023-09-08T12:09:40.367Z,34.2
2023-09-08T12:10:42.197Z,34.3
2023-09-08T12:11:44.002Z,34.4
2023-09-08T12:12:45.855Z,34.3
2023-09-08T12:13:47.836Z,34.3
2023-09-08T12:14:49.839Z,34.3
2023-09-08T12:15:51.754Z,34.4
2023-09-08T12:16:53.941Z,34.3
2023-09-08T12:17:55.934Z,34.3
2023-09-08T12:18:58.131Z,34.4
2023-09-08T12:20:00.352Z,34.3
2023-09-08T12:21:02.121Z,34.3
2023-09-08T12:22:04.160Z,34.4
2023-09-08T12:23:06.298Z,34.3
2023-09-08T12:24:08.070Z,34.3
2023-09-08T12:25:09.914Z,34.4
2023-09-08T12:26:11.686Z,34.4
2023-09-08T12:27:13.548Z,34.3
2023-09-08T12:28:15.723Z,34.4
2023-09-08T12:29:17.842Z,34.4
2023-09-08T12:30:19.629Z,34.5
2023-09-08T12:31:21.695Z,34.5
2023-09-08T12:32:23.679Z,34.5
2023-09-08T12:33:25.411Z,34.5
2023-09-08T12:34:27.290Z,34.5
2023-09-08T12:35:32.933Z,34.5
2023-09-08T12:36:35.289Z,34.5
2023-09-08T12:37:37.223Z,34.4
2023-09-08T12:38:39.080Z,34.3
2023-09-08T12:39:40.796Z,34.3
2023-09-08T12:40:42.628Z,34.2
2023-09-08T12:41:44.338Z,34.3
2023-09-08T12:42:58.127Z,34.3
2023-09-08T12:44:29.622Z,34.3
2023-09-08T12:45:31.497Z,34.2
2023-09-08T12:46:33.865Z,34.2
2023-09-08T12:47:35.843Z,34.1
2023-09-08T12:48:38.311Z,34.1
2023-09-08T12:49:43.684Z,34.1
2023-09-08T12:50:45.581Z,34
2023-09-08T12:51:47.418Z,34.1
2023-09-08T12:52:49.258Z,34.2
2023-09-08T12:53:54.597Z,34
2023-09-08T12:54:58.046Z,33.8
2023-09-08T12:56:05.088Z,34.1
2023-09-08T12:57:07.412Z,34
2023-09-08T12:58:09.303Z,34.1
2023-09-08T12:59:11.091Z,34
2023-09-08T13:00:13.059Z,33.9
2023-09-08T13:01:15.708Z,34.1
2023-09-08T13:02:17.705Z,34
2023-09-08T13:03:19.424Z,34
2023-09-08T13:04:21.150Z,34
2023-09-08T13:05:23.025Z,34
2023-09-08T13:06:25.131Z,34.1
2023-09-08T13:07:28.622Z,34.1
2023-09-08T13:08:30.361Z,34
2023-09-08T13:09:32.280Z,33.9
2023-09-08T13:10:34.342Z,33.8
2023-09-08T13:11:36.390Z,33.8
2023-09-08T13:12:38.324Z,33.9
2023-09-08T13:13:40.358Z,33.9
2023-09-08T13:14:42.193Z,33.9
2023-09-08T13:15:44.085Z,34
2023-09-08T13:16:46.466Z,34.1
2023-09-08T13:17:48.581Z,34.2
2023-09-08T13:18:50.827Z,34
2023-09-08T13:19:52.621Z,33.9
2023-09-08T13:20:54.370Z,34.1
2023-09-08T13:21:56.156Z,34
2023-09-08T13:22:57.943Z,33.8
2023-09-08T13:23:59.839Z,34
2023-09-08T13:25:01.614Z,33.8
2023-09-08T13:26:03.402Z,33.9
2023-09-08T13:27:05.158Z,33.8
2023-09-08T13:28:07.022Z,33.8
2023-09-08T13:29:09.417Z,33.8
2023-09-08T13:30:11.434Z,33.7
2023-09-08T13:31:13.455Z,33.9
2023-09-08T13:32:15.592Z,33.9
2023-09-08T13:33:18.046Z,33.7
2023-09-08T13:34:20.128Z,33.8
2023-09-08T13:35:21.964Z,33.8
2023-09-08T13:36:23.720Z,33.7
2023-09-08T13:37:25.512Z,33.7
2023-09-08T13:38:27.255Z,33.7
2023-09-08T13:39:28.981Z,33.8
2023-09-08T13:40:30.973Z,33.7
2023-09-08T13:41:33.242Z,33.6
2023-09-08T13:42:35.904Z,33.6
2023-09-08T13:43:38.005Z,33.6
2023-09-08T13:44:40.394Z,33.6
2023-09-08T13:45:44.141Z,33.6
2023-09-08T13:46:46.307Z,33.9
2023-09-08T13:47:49.180Z,33.9
2023-09-08T13:48:54.433Z,34
2023-09-08T13:50:06.776Z,34
2023-09-08T13:51:14.734Z,33.9
2023-09-08T13:52:23.071Z,33.7